sensor_id;sensor_type;location;lat;lon;timestamp;P1;durP1;ratioP1;P2;durP2;ratioP2
43650;SDS011;29247;50.944;5.382;2022-12-07T00:01:33;12.18;;;7.50;;
43650;SDS011;29247;50.944;5.382;2022-12-07T00:04:02;11.95;;;7.35;;
43650;SDS011;29247;50.944;5.382;2022-12-07T00:06:32;12.23;;;6.25;;
43650;SDS011;29247;50.944;5.382;2022-12-07T00:09:10;14.57;;;7.10;;
43650;SDS011;29247;50.944;5.382;2022-12-07T00:11:38;14.57;;;8.00;;
43650;SDS011;29247;50.944;5.382;2022-12-07T00:14:10;15.63;;;7.70;;
43650;SDS011;29247;50.944;5.382;2022-12-07T00:16:40;10.07;;;7.07;;
43650;SDS011;29247;50.944;5.382;2022-12-07T00:19:06;11.98;;;6.95;;
43650;SDS011;29247;50.944;5.382;2022-12-07T00:21:34;12.60;;;7.53;;
43650;SDS011;29247;50.944;5.382;2022-12-07T00:24:02;13.13;;;8.55;;
43650;SDS011;29247;50.944;5.382;2022-12-07T00:26:30;19.13;;;9.23;;
43650;SDS011;29247;50.944;5.382;2022-12-07T00:29:01;14.75;;;7.97;;
43650;SDS011;29247;50.944;5.382;2022-12-07T00:31:30;13.05;;;7.93;;
43650;SDS011;29247;50.944;5.382;2022-12-07T00:34:03;10.77;;;7.07;;
43650;SDS011;29247;50.944;5.382;2022-12-07T00:36:32;11.13;;;6.88;;
43650;SDS011;29247;50.944;5.382;2022-12-07T00:38:58;13.02;;;7.50;;
43650;SDS011;29247;50.944;5.382;2022-12-07T00:41:25;14.20;;;7.70;;
43650;SDS011;29247;50.944;5.382;2022-12-07T00:43:52;11.55;;;7.38;;
43650;SDS011;29247;50.944;5.382;2022-12-07T00:46:21;13.30;;;7.65;;
43650;SDS011;29247;50.944;5.382;2022-12-07T00:48:48;14.43;;;8.20;;
43650;SDS011;29247;50.944;5.382;2022-12-07T00:51:14;15.00;;;7.38;;
43650;SDS011;29247;50.944;5.382;2022-12-07T00:53:42;11.63;;;7.10;;
43650;SDS011;29247;50.944;5.382;2022-12-07T00:58:39;11.93;;;7.32;;
43650;SDS011;29247;50.944;5.382;2022-12-07T01:01:06;15.70;;;8.70;;
43650;SDS011;29247;50.944;5.382;2022-12-07T01:03:36;13.82;;;8.45;;
43650;SDS011;29247;50.944;5.382;2022-12-07T01:06:03;13.65;;;7.35;;
43650;SDS011;29247;50.944;5.382;2022-12-07T01:08:31;17.08;;;7.88;;
43650;SDS011;29247;50.944;5.382;2022-12-07T01:11:04;14.45;;;9.35;;
43650;SDS011;29247;50.944;5.382;2022-12-07T01:13:32;14.93;;;7.60;;
43650;SDS011;29247;50.944;5.382;2022-12-07T01:16:00;11.73;;;6.82;;
43650;SDS011;29247;50.944;5.382;2022-12-07T01:18:31;11.30;;;6.75;;
43650;SDS011;29247;50.944;5.382;2022-12-07T01:21:05;11.73;;;6.95;;
43650;SDS011;29247;50.944;5.382;2022-12-07T01:23:33;15.35;;;8.48;;
43650;SDS011;29247;50.944;5.382;2022-12-07T01:26:00;11.25;;;7.07;;
43650;SDS011;29247;50.944;5.382;2022-12-07T01:28:28;15.43;;;8.20;;
43650;SDS011;29247;50.944;5.382;2022-12-07T01:31:04;13.10;;;8.02;;
43650;SDS011;29247;50.944;5.382;2022-12-07T01:33:43;12.68;;;7.38;;
43650;SDS011;29247;50.944;5.382;2022-12-07T01:38:51;10.95;;;7.10;;
43650;SDS011;29247;50.944;5.382;2022-12-07T01:41:21;12.82;;;7.65;;
43650;SDS011;29247;50.944;5.382;2022-12-07T01:46:43;13.48;;;7.50;;
43650;SDS011;29247;50.944;5.382;2022-12-07T01:49:14;11.15;;;7.93;;
43650;SDS011;29247;50.944;5.382;2022-12-07T01:51:51;12.90;;;7.38;;
43650;SDS011;29247;50.944;5.382;2022-12-07T01:54:22;12.35;;;6.97;;
43650;SDS011;29247;50.944;5.382;2022-12-07T01:56:50;13.25;;;7.45;;
43650;SDS011;29247;50.944;5.382;2022-12-07T01:59:19;11.60;;;7.28;;
43650;SDS011;29247;50.944;5.382;2022-12-07T02:01:52;11.85;;;6.65;;
43650;SDS011;29247;50.944;5.382;2022-12-07T02:04:19;11.23;;;6.32;;
43650;SDS011;29247;50.944;5.382;2022-12-07T02:06:48;14.95;;;7.28;;
43650;SDS011;29247;50.944;5.382;2022-12-07T02:09:15;11.13;;;6.90;;
43650;SDS011;29247;50.944;5.382;2022-12-07T02:11:40;10.52;;;7.28;;
43650;SDS011;29247;50.944;5.382;2022-12-07T02:14:06;15.55;;;7.70;;
43650;SDS011;29247;50.944;5.382;2022-12-07T02:22:12;16.88;;;8.77;;
43650;SDS011;29247;50.944;5.382;2022-12-07T02:30:22;11.52;;;7.30;;
43650;SDS011;29247;50.944;5.382;2022-12-07T02:32:56;10.45;;;6.10;;
43650;SDS011;29247;50.944;5.382;2022-12-07T02:35:46;13.82;;;6.88;;
43650;SDS011;29247;50.944;5.382;2022-12-07T02:38:20;11.90;;;6.93;;
43650;SDS011;29247;50.944;5.382;2022-12-07T02:43:59;13.38;;;7.43;;
43650;SDS011;29247;50.944;5.382;2022-12-07T02:49:16;8.00;;;5.70;;
43650;SDS011;29247;50.944;5.382;2022-12-07T02:51:45;12.43;;;7.88;;
43650;SDS011;29247;50.944;5.382;2022-12-07T02:54:12;11.95;;;7.05;;
43650;SDS011;29247;50.944;5.382;2022-12-07T03:16:17;14.65;;;7.25;;
43650;SDS011;29247;50.944;5.382;2022-12-07T03:21:22;10.60;;;6.85;;
43650;SDS011;29247;50.944;5.382;2022-12-07T03:23:56;11.95;;;8.13;;
43650;SDS011;29247;50.944;5.382;2022-12-07T03:26:29;16.30;;;9.40;;
43650;SDS011;29247;50.944;5.382;2022-12-07T03:29:00;11.55;;;7.72;;
43650;SDS011;29247;50.944;5.382;2022-12-07T03:31:36;14.18;;;7.55;;
43650;SDS011;29247;50.944;5.382;2022-12-07T03:37:06;16.80;;;8.50;;
43650;SDS011;29247;50.944;5.382;2022-12-07T03:42:47;13.68;;;7.72;;
43650;SDS011;29247;50.944;5.382;2022-12-07T03:45:13;15.75;;;8.55;;
43650;SDS011;29247;50.944;5.382;2022-12-07T03:47:43;14.32;;;8.27;;
43650;SDS011;29247;50.944;5.382;2022-12-07T03:50:18;13.40;;;8.85;;
43650;SDS011;29247;50.944;5.382;2022-12-07T03:52:55;13.90;;;8.45;;
43650;SDS011;29247;50.944;5.382;2022-12-07T03:55:28;15.77;;;8.65;;
43650;SDS011;29247;50.944;5.382;2022-12-07T03:58:00;13.80;;;8.25;;
43650;SDS011;29247;50.944;5.382;2022-12-07T04:00:31;13.05;;;8.73;;
43650;SDS011;29247;50.944;5.382;2022-12-07T04:03:05;17.13;;;8.35;;
43650;SDS011;29247;50.944;5.382;2022-12-07T04:05:31;15.38;;;8.23;;
43650;SDS011;29247;50.944;5.382;2022-12-07T04:07:59;13.95;;;8.60;;
43650;SDS011;29247;50.944;5.382;2022-12-07T04:10:27;15.32;;;9.07;;
43650;SDS011;29247;50.944;5.382;2022-12-07T04:12:55;16.13;;;8.77;;
43650;SDS011;29247;50.944;5.382;2022-12-07T04:15:22;16.52;;;9.52;;
43650;SDS011;29247;50.944;5.382;2022-12-07T04:17:47;10.98;;;8.00;;
43650;SDS011;29247;50.944;5.382;2022-12-07T04:20:16;12.43;;;8.57;;
43650;SDS011;29247;50.944;5.382;2022-12-07T04:22:42;12.77;;;9.02;;
43650;SDS011;29247;50.944;5.382;2022-12-07T04:25:07;15.63;;;9.95;;
43650;SDS011;29247;50.944;5.382;2022-12-07T04:27:38;14.45;;;8.20;;
43650;SDS011;29247;50.944;5.382;2022-12-07T04:30:06;13.98;;;8.95;;
43650;SDS011;29247;50.944;5.382;2022-12-07T04:32:38;12.02;;;7.93;;
43650;SDS011;29247;50.944;5.382;2022-12-07T04:35:03;13.30;;;8.15;;
43650;SDS011;29247;50.944;5.382;2022-12-07T04:37:33;15.35;;;8.32;;
43650;SDS011;29247;50.944;5.382;2022-12-07T04:40:02;11.38;;;8.05;;
43650;SDS011;29247;50.944;5.382;2022-12-07T04:42:28;15.70;;;8.77;;
43650;SDS011;29247;50.944;5.382;2022-12-07T04:44:54;13.32;;;8.15;;
43650;SDS011;29247;50.944;5.382;2022-12-07T04:47:20;16.13;;;9.13;;
43650;SDS011;29247;50.944;5.382;2022-12-07T04:49:46;12.00;;;8.30;;
43650;SDS011;29247;50.944;5.382;2022-12-07T04:52:14;10.68;;;7.90;;
43650;SDS011;29247;50.944;5.382;2022-12-07T04:54:44;12.43;;;7.10;;
43650;SDS011;29247;50.944;5.382;2022-12-07T04:57:15;12.75;;;8.45;;
43650;SDS011;29247;50.944;5.382;2022-12-07T05:02:49;16.00;;;8.10;;
43650;SDS011;29247;50.944;5.382;2022-12-07T05:05:17;14.52;;;8.20;;
43650;SDS011;29247;50.944;5.382;2022-12-07T05:07:43;15.05;;;9.63;;
43650;SDS011;29247;50.944;5.382;2022-12-07T05:10:10;18.73;;;9.18;;
43650;SDS011;29247;50.944;5.382;2022-12-07T05:12:36;15.85;;;8.73;;
43650;SDS011;29247;50.944;5.382;2022-12-07T05:15:02;16.77;;;8.32;;
43650;SDS011;29247;50.944;5.382;2022-12-07T05:17:31;18.25;;;8.77;;
43650;SDS011;29247;50.944;5.382;2022-12-07T05:20:00;12.20;;;8.40;;
43650;SDS011;29247;50.944;5.382;2022-12-07T05:22:25;12.88;;;8.02;;
43650;SDS011;29247;50.944;5.382;2022-12-07T05:24:53;13.25;;;7.97;;
43650;SDS011;29247;50.944;5.382;2022-12-07T05:27:22;17.20;;;8.05;;
43650;SDS011;29247;50.944;5.382;2022-12-07T05:29:49;10.60;;;8.10;;
43650;SDS011;29247;50.944;5.382;2022-12-07T05:32:15;13.00;;;8.30;;
43650;SDS011;29247;50.944;5.382;2022-12-07T05:34:41;13.95;;;8.07;;
43650;SDS011;29247;50.944;5.382;2022-12-07T05:37:09;11.18;;;7.80;;
43650;SDS011;29247;50.944;5.382;2022-12-07T05:39:40;16.65;;;8.27;;
43650;SDS011;29247;50.944;5.382;2022-12-07T05:42:08;10.35;;;7.57;;
43650;SDS011;29247;50.944;5.382;2022-12-07T05:44:44;13.40;;;8.50;;
43650;SDS011;29247;50.944;5.382;2022-12-07T05:47:13;13.52;;;8.30;;
43650;SDS011;29247;50.944;5.382;2022-12-07T05:49:42;13.02;;;8.77;;
43650;SDS011;29247;50.944;5.382;2022-12-07T05:52:08;15.98;;;8.85;;
43650;SDS011;29247;50.944;5.382;2022-12-07T05:57:08;13.32;;;8.38;;
43650;SDS011;29247;50.944;5.382;2022-12-07T05:59:34;13.15;;;8.90;;
43650;SDS011;29247;50.944;5.382;2022-12-07T06:02:01;17.20;;;8.90;;
43650;SDS011;29247;50.944;5.382;2022-12-07T06:04:29;13.35;;;9.50;;
43650;SDS011;29247;50.944;5.382;2022-12-07T06:06:57;14.43;;;8.80;;
43650;SDS011;29247;50.944;5.382;2022-12-07T06:09:25;13.77;;;9.20;;
43650;SDS011;29247;50.944;5.382;2022-12-07T06:11:55;15.30;;;9.57;;
43650;SDS011;29247;50.944;5.382;2022-12-07T06:14:44;15.88;;;8.50;;
43650;SDS011;29247;50.944;5.382;2022-12-07T06:17:10;15.65;;;8.60;;
43650;SDS011;29247;50.944;5.382;2022-12-07T06:19:37;16.15;;;9.95;;
43650;SDS011;29247;50.944;5.382;2022-12-07T06:22:04;11.80;;;8.68;;
43650;SDS011;29247;50.944;5.382;2022-12-07T06:24:32;15.68;;;9.15;;
43650;SDS011;29247;50.944;5.382;2022-12-07T06:26:58;13.93;;;9.18;;
43650;SDS011;29247;50.944;5.382;2022-12-07T06:29:24;18.17;;;9.35;;
43650;SDS011;29247;50.944;5.382;2022-12-07T06:31:51;14.90;;;9.27;;
43650;SDS011;29247;50.944;5.382;2022-12-07T06:34:21;17.15;;;8.88;;
43650;SDS011;29247;50.944;5.382;2022-12-07T06:36:49;13.63;;;9.27;;
43650;SDS011;29247;50.944;5.382;2022-12-07T06:39:29;13.10;;;9.13;;
43650;SDS011;29247;50.944;5.382;2022-12-07T06:41:55;14.57;;;8.70;;
43650;SDS011;29247;50.944;5.382;2022-12-07T06:44:23;13.65;;;7.97;;
43650;SDS011;29247;50.944;5.382;2022-12-07T06:46:52;15.15;;;8.40;;
43650;SDS011;29247;50.944;5.382;2022-12-07T06:49:18;17.42;;;8.98;;
43650;SDS011;29247;50.944;5.382;2022-12-07T06:51:44;16.83;;;9.27;;
43650;SDS011;29247;50.944;5.382;2022-12-07T06:54:10;15.05;;;8.70;;
43650;SDS011;29247;50.944;5.382;2022-12-07T06:56:37;16.67;;;9.65;;
43650;SDS011;29247;50.944;5.382;2022-12-07T06:59:08;15.57;;;8.52;;
43650;SDS011;29247;50.944;5.382;2022-12-07T07:01:34;19.02;;;9.57;;
43650;SDS011;29247;50.944;5.382;2022-12-07T07:04:00;12.35;;;9.13;;
43650;SDS011;29247;50.944;5.382;2022-12-07T07:06:29;13.75;;;9.20;;
43650;SDS011;29247;50.944;5.382;2022-12-07T07:11:22;11.88;;;7.82;;
43650;SDS011;29247;50.944;5.382;2022-12-07T07:13:48;13.75;;;8.43;;
43650;SDS011;29247;50.944;5.382;2022-12-07T07:16:19;12.95;;;7.93;;
43650;SDS011;29247;50.944;5.382;2022-12-07T07:18:59;18.55;;;8.48;;
43650;SDS011;29247;50.944;5.382;2022-12-07T07:21:24;11.55;;;8.35;;
43650;SDS011;29247;50.944;5.382;2022-12-07T07:23:53;14.13;;;8.32;;
43650;SDS011;29247;50.944;5.382;2022-12-07T07:26:19;11.50;;;7.95;;
43650;SDS011;29247;50.944;5.382;2022-12-07T07:28:45;14.38;;;9.35;;
43650;SDS011;29247;50.944;5.382;2022-12-07T07:31:10;13.68;;;8.77;;
43650;SDS011;29247;50.944;5.382;2022-12-07T07:33:36;14.50;;;8.45;;
43650;SDS011;29247;50.944;5.382;2022-12-07T07:36:02;12.40;;;8.30;;
43650;SDS011;29247;50.944;5.382;2022-12-07T07:38:30;14.73;;;8.82;;
43650;SDS011;29247;50.944;5.382;2022-12-07T07:40:55;12.88;;;8.27;;
43650;SDS011;29247;50.944;5.382;2022-12-07T07:43:21;17.52;;;9.05;;
43650;SDS011;29247;50.944;5.382;2022-12-07T07:45:49;13.38;;;7.57;;
43650;SDS011;29247;50.944;5.382;2022-12-07T07:48:15;13.38;;;8.60;;
43650;SDS011;29247;50.944;5.382;2022-12-07T07:50:43;13.73;;;8.00;;
43650;SDS011;29247;50.944;5.382;2022-12-07T07:53:11;13.77;;;8.45;;
43650;SDS011;29247;50.944;5.382;2022-12-07T07:55:37;16.75;;;7.97;;
43650;SDS011;29247;50.944;5.382;2022-12-07T07:58:05;14.15;;;8.52;;
43650;SDS011;29247;50.944;5.382;2022-12-07T08:00:30;11.10;;;7.30;;
43650;SDS011;29247;50.944;5.382;2022-12-07T08:02:56;15.20;;;8.32;;
43650;SDS011;29247;50.944;5.382;2022-12-07T08:05:25;12.13;;;8.02;;
43650;SDS011;29247;50.944;5.382;2022-12-07T08:07:53;10.40;;;7.35;;
43650;SDS011;29247;50.944;5.382;2022-12-07T08:10:18;12.88;;;8.15;;
43650;SDS011;29247;50.944;5.382;2022-12-07T08:12:44;14.88;;;8.35;;
43650;SDS011;29247;50.944;5.382;2022-12-07T08:15:30;13.85;;;8.13;;
43650;SDS011;29247;50.944;5.382;2022-12-07T08:17:56;12.82;;;7.75;;
43650;SDS011;29247;50.944;5.382;2022-12-07T08:20:24;13.48;;;8.55;;
43650;SDS011;29247;50.944;5.382;2022-12-07T08:22:51;14.02;;;8.23;;
43650;SDS011;29247;50.944;5.382;2022-12-07T08:25:17;11.02;;;7.55;;
43650;SDS011;29247;50.944;5.382;2022-12-07T08:27:45;13.32;;;8.05;;
43650;SDS011;29247;50.944;5.382;2022-12-07T08:30:11;11.15;;;7.68;;
43650;SDS011;29247;50.944;5.382;2022-12-07T08:32:37;15.10;;;9.40;;
43650;SDS011;29247;50.944;5.382;2022-12-07T08:35:02;10.63;;;8.05;;
43650;SDS011;29247;50.944;5.382;2022-12-07T08:37:30;14.23;;;8.55;;
43650;SDS011;29247;50.944;5.382;2022-12-07T08:39:58;16.92;;;9.55;;
43650;SDS011;29247;50.944;5.382;2022-12-07T08:42:24;14.45;;;9.38;;
43650;SDS011;29247;50.944;5.382;2022-12-07T08:44:54;17.33;;;10.07;;
43650;SDS011;29247;50.944;5.382;2022-12-07T08:47:28;13.60;;;8.82;;
43650;SDS011;29247;50.944;5.382;2022-12-07T08:49:55;16.40;;;9.93;;
43650;SDS011;29247;50.944;5.382;2022-12-07T08:52:21;19.30;;;9.52;;
43650;SDS011;29247;50.944;5.382;2022-12-07T08:54:47;18.33;;;8.70;;
43650;SDS011;29247;50.944;5.382;2022-12-07T08:57:13;16.60;;;10.15;;
43650;SDS011;29247;50.944;5.382;2022-12-07T08:59:39;18.85;;;9.52;;
43650;SDS011;29247;50.944;5.382;2022-12-07T09:02:07;17.20;;;8.70;;
43650;SDS011;29247;50.944;5.382;2022-12-07T09:04:33;14.48;;;9.05;;
43650;SDS011;29247;50.944;5.382;2022-12-07T09:07:01;12.23;;;8.30;;
43650;SDS011;29247;50.944;5.382;2022-12-07T09:09:27;14.65;;;8.70;;
43650;SDS011;29247;50.944;5.382;2022-12-07T09:11:52;18.05;;;9.10;;
43650;SDS011;29247;50.944;5.382;2022-12-07T09:14:18;16.42;;;9.07;;
43650;SDS011;29247;50.944;5.382;2022-12-07T09:17:10;18.63;;;9.38;;
43650;SDS011;29247;50.944;5.382;2022-12-07T09:19:37;12.73;;;8.20;;
43650;SDS011;29247;50.944;5.382;2022-12-07T09:22:06;15.27;;;8.68;;
43650;SDS011;29247;50.944;5.382;2022-12-07T09:24:34;13.48;;;8.60;;
43650;SDS011;29247;50.944;5.382;2022-12-07T09:27:02;11.95;;;7.25;;
43650;SDS011;29247;50.944;5.382;2022-12-07T09:29:28;15.43;;;8.20;;
43650;SDS011;29247;50.944;5.382;2022-12-07T09:31:53;15.95;;;7.28;;
43650;SDS011;29247;50.944;5.382;2022-12-07T09:34:19;17.35;;;9.57;;
43650;SDS011;29247;50.944;5.382;2022-12-07T09:36:46;13.25;;;7.60;;
43650;SDS011;29247;50.944;5.382;2022-12-07T09:39:12;14.43;;;8.40;;
43650;SDS011;29247;50.944;5.382;2022-12-07T09:41:38;15.20;;;8.10;;
43650;SDS011;29247;50.944;5.382;2022-12-07T09:44:07;14.30;;;7.50;;
43650;SDS011;29247;50.944;5.382;2022-12-07T09:46:42;11.80;;;7.18;;
43650;SDS011;29247;50.944;5.382;2022-12-07T09:49:12;12.95;;;7.38;;
43650;SDS011;29247;50.944;5.382;2022-12-07T09:51:45;15.25;;;7.90;;
43650;SDS011;29247;50.944;5.382;2022-12-07T09:54:12;14.43;;;7.85;;
43650;SDS011;29247;50.944;5.382;2022-12-07T09:56:39;14.82;;;7.38;;
43650;SDS011;29247;50.944;5.382;2022-12-07T09:59:17;13.15;;;7.07;;
43650;SDS011;29247;50.944;5.382;2022-12-07T10:01:44;11.80;;;6.57;;
43650;SDS011;29247;50.944;5.382;2022-12-07T10:04:20;10.55;;;5.97;;
43650;SDS011;29247;50.944;5.382;2022-12-07T10:06:48;9.82;;;5.70;;
43650;SDS011;29247;50.944;5.382;2022-12-07T10:09:16;12.55;;;5.80;;
43650;SDS011;29247;50.944;5.382;2022-12-07T10:11:59;11.10;;;5.50;;
43650;SDS011;29247;50.944;5.382;2022-12-07T10:14:29;8.90;;;5.35;;
43650;SDS011;29247;50.944;5.382;2022-12-07T10:16:56;8.50;;;5.13;;
43650;SDS011;29247;50.944;5.382;2022-12-07T10:19:23;11.95;;;5.00;;
43650;SDS011;29247;50.944;5.382;2022-12-07T10:22:16;14.38;;;4.72;;
43650;SDS011;29247;50.944;5.382;2022-12-07T10:24:45;8.18;;;3.83;;
43650;SDS011;29247;50.944;5.382;2022-12-07T10:27:31;7.45;;;4.03;;
43650;SDS011;29247;50.944;5.382;2022-12-07T10:29:57;10.43;;;4.57;;
43650;SDS011;29247;50.944;5.382;2022-12-07T10:32:34;7.95;;;4.30;;
43650;SDS011;29247;50.944;5.382;2022-12-07T10:38:15;13.07;;;3.85;;
43650;SDS011;29247;50.944;5.382;2022-12-07T10:40:42;8.13;;;4.25;;
43650;SDS011;29247;50.944;5.382;2022-12-07T10:57:16;11.43;;;4.30;;
43650;SDS011;29247;50.944;5.382;2022-12-07T10:59:47;10.63;;;3.53;;
43650;SDS011;29247;50.944;5.382;2022-12-07T11:02:24;6.97;;;4.30;;
43650;SDS011;29247;50.944;5.382;2022-12-07T11:13:14;6.35;;;3.42;;
43650;SDS011;29247;50.944;5.382;2022-12-07T11:21:27;9.30;;;3.80;;
43650;SDS011;29247;50.944;5.382;2022-12-07T11:37:35;8.77;;;3.25;;
43650;SDS011;29247;50.944;5.382;2022-12-07T11:42:39;9.10;;;3.28;;
43650;SDS011;29247;50.944;5.382;2022-12-07T11:45:16;10.68;;;3.85;;
43650;SDS011;29247;50.944;5.382;2022-12-07T11:47:58;6.65;;;3.20;;
43650;SDS011;29247;50.944;5.382;2022-12-07T11:53:27;11.43;;;3.42;;
43650;SDS011;29247;50.944;5.382;2022-12-07T11:56:11;6.05;;;3.13;;
43650;SDS011;29247;50.944;5.382;2022-12-07T11:58:45;5.93;;;3.30;;
43650;SDS011;29247;50.944;5.382;2022-12-07T12:04:05;9.52;;;2.88;;
43650;SDS011;29247;50.944;5.382;2022-12-07T12:06:32;6.47;;;2.58;;
43650;SDS011;29247;50.944;5.382;2022-12-07T12:09:17;7.28;;;3.00;;
43650;SDS011;29247;50.944;5.382;2022-12-07T12:11:54;8.90;;;3.55;;
43650;SDS011;29247;50.944;5.382;2022-12-07T12:22:50;5.27;;;2.40;;
43650;SDS011;29247;50.944;5.382;2022-12-07T12:25:28;6.00;;;2.03;;
43650;SDS011;29247;50.944;5.382;2022-12-07T12:28:00;7.30;;;3.05;;
43650;SDS011;29247;50.944;5.382;2022-12-07T12:30:32;7.38;;;2.50;;
43650;SDS011;29247;50.944;5.382;2022-12-07T12:44:01;6.15;;;2.78;;
43650;SDS011;29247;50.944;5.382;2022-12-07T12:51:45;6.55;;;2.25;;
43650;SDS011;29247;50.944;5.382;2022-12-07T13:04:53;6.82;;;2.88;;
43650;SDS011;29247;50.944;5.382;2022-12-07T13:29:03;2.67;;;1.48;;
43650;SDS011;29247;50.944;5.382;2022-12-07T13:39:46;5.35;;;1.73;;
43650;SDS011;29247;50.944;5.382;2022-12-07T13:42:27;6.55;;;2.13;;
43650;SDS011;29247;50.944;5.382;2022-12-07T13:44:55;4.43;;;2.05;;
43650;SDS011;29247;50.944;5.382;2022-12-07T13:50:00;6.72;;;1.70;;
43650;SDS011;29247;50.944;5.382;2022-12-07T13:52:27;7.15;;;1.42;;
43650;SDS011;29247;50.944;5.382;2022-12-07T13:55:01;1.80;;;1.63;;
43650;SDS011;29247;50.944;5.382;2022-12-07T13:57:35;2.35;;;1.52;;
43650;SDS011;29247;50.944;5.382;2022-12-07T14:00:05;4.28;;;1.88;;
43650;SDS011;29247;50.944;5.382;2022-12-07T14:02:57;6.03;;;1.70;;
43650;SDS011;29247;50.944;5.382;2022-12-07T14:05:28;4.53;;;1.70;;
43650;SDS011;29247;50.944;5.382;2022-12-07T14:08:01;2.83;;;1.30;;
43650;SDS011;29247;50.944;5.382;2022-12-07T14:10:30;3.35;;;1.17;;
43650;SDS011;29247;50.944;5.382;2022-12-07T14:12:58;2.75;;;1.30;;
43650;SDS011;29247;50.944;5.382;2022-12-07T14:15:32;5.28;;;1.40;;
43650;SDS011;29247;50.944;5.382;2022-12-07T14:18:00;4.45;;;1.70;;
43650;SDS011;29247;50.944;5.382;2022-12-07T14:20:29;5.32;;;1.95;;
43650;SDS011;29247;50.944;5.382;2022-12-07T14:23:00;1.88;;;1.05;;
43650;SDS011;29247;50.944;5.382;2022-12-07T14:25:43;1.90;;;1.00;;
43650;SDS011;29247;50.944;5.382;2022-12-07T14:28:29;2.40;;;1.20;;
43650;SDS011;29247;50.944;5.382;2022-12-07T14:30:57;2.70;;;1.30;;
43650;SDS011;29247;50.944;5.382;2022-12-07T14:33:24;3.35;;;1.50;;
43650;SDS011;29247;50.944;5.382;2022-12-07T14:35:50;2.47;;;1.40;;
43650;SDS011;29247;50.944;5.382;2022-12-07T14:38:20;1.70;;;1.30;;
43650;SDS011;29247;50.944;5.382;2022-12-07T14:40:49;6.35;;;1.65;;
43650;SDS011;29247;50.944;5.382;2022-12-07T14:43:21;7.30;;;2.25;;
43650;SDS011;29247;50.944;5.382;2022-12-07T14:45:48;5.88;;;2.15;;
43650;SDS011;29247;50.944;5.382;2022-12-07T14:48:17;5.07;;;1.98;;
43650;SDS011;29247;50.944;5.382;2022-12-07T14:50:44;4.18;;;1.90;;
43650;SDS011;29247;50.944;5.382;2022-12-07T14:53:21;3.60;;;2.53;;
43650;SDS011;29247;50.944;5.382;2022-12-07T14:55:55;4.55;;;2.55;;
43650;SDS011;29247;50.944;5.382;2022-12-07T14:58:21;8.95;;;2.38;;
43650;SDS011;29247;50.944;5.382;2022-12-07T15:00:46;4.55;;;2.05;;
43650;SDS011;29247;50.944;5.382;2022-12-07T15:03:12;4.65;;;2.30;;
43650;SDS011;29247;50.944;5.382;2022-12-07T15:05:41;8.05;;;3.00;;
43650;SDS011;29247;50.944;5.382;2022-12-07T15:08:16;5.70;;;2.85;;
43650;SDS011;29247;50.944;5.382;2022-12-07T15:10:41;4.15;;;2.58;;
43650;SDS011;29247;50.944;5.382;2022-12-07T15:13:08;5.82;;;2.60;;
43650;SDS011;29247;50.944;5.382;2022-12-07T15:15:55;5.07;;;2.83;;
43650;SDS011;29247;50.944;5.382;2022-12-07T15:18:21;5.45;;;3.08;;
43650;SDS011;29247;50.944;5.382;2022-12-07T15:20:48;3.17;;;2.55;;
43650;SDS011;29247;50.944;5.382;2022-12-07T15:23:14;4.88;;;2.90;;
43650;SDS011;29247;50.944;5.382;2022-12-07T15:25:40;6.80;;;3.30;;
43650;SDS011;29247;50.944;5.382;2022-12-07T15:28:09;7.55;;;3.25;;
43650;SDS011;29247;50.944;5.382;2022-12-07T15:30:36;4.45;;;3.20;;
43650;SDS011;29247;50.944;5.382;2022-12-07T15:33:03;5.03;;;3.00;;
43650;SDS011;29247;50.944;5.382;2022-12-07T15:35:32;6.32;;;3.17;;
43650;SDS011;29247;50.944;5.382;2022-12-07T15:38:06;11.63;;;2.88;;
43650;SDS011;29247;50.944;5.382;2022-12-07T15:40:33;5.10;;;3.13;;
43650;SDS011;29247;50.944;5.382;2022-12-07T15:42:59;5.65;;;3.00;;
43650;SDS011;29247;50.944;5.382;2022-12-07T15:45:28;3.75;;;2.75;;
43650;SDS011;29247;50.944;5.382;2022-12-07T15:47:54;7.28;;;3.10;;
43650;SDS011;29247;50.944;5.382;2022-12-07T15:50:22;10.10;;;3.20;;
43650;SDS011;29247;50.944;5.382;2022-12-07T15:52:48;3.92;;;2.42;;
43650;SDS011;29247;50.944;5.382;2022-12-07T15:55:14;7.05;;;3.08;;
43650;SDS011;29247;50.944;5.382;2022-12-07T15:57:40;9.18;;;3.33;;
43650;SDS011;29247;50.944;5.382;2022-12-07T16:00:06;6.90;;;3.03;;
43650;SDS011;29247;50.944;5.382;2022-12-07T16:02:36;5.43;;;3.30;;
43650;SDS011;29247;50.944;5.382;2022-12-07T16:05:02;6.10;;;3.35;;
43650;SDS011;29247;50.944;5.382;2022-12-07T16:07:28;7.32;;;3.13;;
43650;SDS011;29247;50.944;5.382;2022-12-07T16:09:54;5.72;;;2.88;;
43650;SDS011;29247;50.944;5.382;2022-12-07T16:12:19;6.13;;;2.85;;
43650;SDS011;29247;50.944;5.382;2022-12-07T16:14:45;10.13;;;2.95;;
43650;SDS011;29247;50.944;5.382;2022-12-07T16:17:11;5.18;;;2.60;;
43650;SDS011;29247;50.944;5.382;2022-12-07T16:19:37;4.50;;;1.92;;
43650;SDS011;29247;50.944;5.382;2022-12-07T16:22:03;4.20;;;2.05;;
43650;SDS011;29247;50.944;5.382;2022-12-07T16:24:30;3.97;;;2.28;;
43650;SDS011;29247;50.944;5.382;2022-12-07T16:27:01;3.58;;;2.03;;
43650;SDS011;29247;50.944;5.382;2022-12-07T16:29:27;3.08;;;2.33;;
43650;SDS011;29247;50.944;5.382;2022-12-07T16:31:52;3.20;;;2.28;;
43650;SDS011;29247;50.944;5.382;2022-12-07T16:34:18;4.65;;;2.05;;
43650;SDS011;29247;50.944;5.382;2022-12-07T16:36:44;2.63;;;1.65;;
43650;SDS011;29247;50.944;5.382;2022-12-07T16:39:10;4.63;;;1.98;;
43650;SDS011;29247;50.944;5.382;2022-12-07T16:41:36;6.18;;;2.00;;
43650;SDS011;29247;50.944;5.382;2022-12-07T16:44:05;2.25;;;1.75;;
43650;SDS011;29247;50.944;5.382;2022-12-07T16:46:33;3.65;;;1.80;;
43650;SDS011;29247;50.944;5.382;2022-12-07T16:49:00;3.08;;;1.83;;
43650;SDS011;29247;50.944;5.382;2022-12-07T16:51:28;3.83;;;2.08;;
43650;SDS011;29247;50.944;5.382;2022-12-07T16:53:55;5.75;;;1.83;;
43650;SDS011;29247;50.944;5.382;2022-12-07T16:56:21;3.33;;;1.90;;
43650;SDS011;29247;50.944;5.382;2022-12-07T17:01:57;5.05;;;2.45;;
43650;SDS011;29247;50.944;5.382;2022-12-07T17:04:23;3.28;;;2.13;;
43650;SDS011;29247;50.944;5.382;2022-12-07T17:06:48;4.60;;;2.10;;
43650;SDS011;29247;50.944;5.382;2022-12-07T17:09:16;5.63;;;2.35;;
43650;SDS011;29247;50.944;5.382;2022-12-07T17:12:03;3.60;;;2.22;;
43650;SDS011;29247;50.944;5.382;2022-12-07T17:14:30;7.03;;;2.10;;
43650;SDS011;29247;50.944;5.382;2022-12-07T17:17:15;7.93;;;2.10;;
43650;SDS011;29247;50.944;5.382;2022-12-07T17:19:40;5.32;;;2.45;;
43650;SDS011;29247;50.944;5.382;2022-12-07T17:22:07;3.30;;;2.08;;
43650;SDS011;29247;50.944;5.382;2022-12-07T17:24:33;3.63;;;2.60;;
43650;SDS011;29247;50.944;5.382;2022-12-07T17:26:58;4.30;;;2.20;;
43650;SDS011;29247;50.944;5.382;2022-12-07T17:29:26;5.43;;;2.40;;
43650;SDS011;29247;50.944;5.382;2022-12-07T17:31:52;3.95;;;2.15;;
43650;SDS011;29247;50.944;5.382;2022-12-07T17:34:18;6.18;;;2.72;;
43650;SDS011;29247;50.944;5.382;2022-12-07T17:36:43;4.35;;;2.30;;
43650;SDS011;29247;50.944;5.382;2022-12-07T17:39:10;6.20;;;2.72;;
43650;SDS011;29247;50.944;5.382;2022-12-07T17:41:42;5.77;;;2.87;;
43650;SDS011;29247;50.944;5.382;2022-12-07T17:44:26;6.80;;;3.15;;
43650;SDS011;29247;50.944;5.382;2022-12-07T17:46:52;4.63;;;2.90;;
43650;SDS011;29247;50.944;5.382;2022-12-07T17:49:19;8.38;;;2.58;;
43650;SDS011;29247;50.944;5.382;2022-12-07T17:51:46;5.00;;;3.28;;
43650;SDS011;29247;50.944;5.382;2022-12-07T17:54:30;4.10;;;3.03;;
43650;SDS011;29247;50.944;5.382;2022-12-07T17:56:55;7.63;;;3.40;;